sensor_id;sensor_type;location;lat;lon;timestamp;P1;durP1;ratioP1;P2;durP2;ratioP2
2434;SDS011;1228;51.022;6.764;2023-04-03T00:01:28;8.30;;;7.80;;
2434;SDS011;1228;51.022;6.764;2023-04-03T00:03:54;9.13;;;8.63;;
2434;SDS011;1228;51.022;6.764;2023-04-03T00:06:20;8.87;;;8.40;;
2434;SDS011;1228;51.022;6.764;2023-04-03T00:08:46;8.20;;;7.80;;
2434;SDS011;1228;51.022;6.764;2023-04-03T00:11:11;10.20;;;9.70;;
2434;SDS011;1228;51.022;6.764;2023-04-03T00:13:37;8.33;;;7.93;;
2434;SDS011;1228;51.022;6.764;2023-04-03T00:16:04;8.73;;;8.33;;
2434;SDS011;1228;51.022;6.764;2023-04-03T00:18:30;8.63;;;8.03;;
2434;SDS011;1228;51.022;6.764;2023-04-03T00:20:56;8.80;;;8.20;;
2434;SDS011;1228;51.022;6.764;2023-04-03T00:23:22;9.30;;;8.80;;
2434;SDS011;1228;51.022;6.764;2023-04-03T00:25:48;9.17;;;8.77;;
2434;SDS011;1228;51.022;6.764;2023-04-03T00:28:15;8.77;;;8.37;;
2434;SDS011;1228;51.022;6.764;2023-04-03T00:30:41;8.87;;;8.47;;
2434;SDS011;1228;51.022;6.764;2023-04-03T00:33:06;9.40;;;8.90;;
2434;SDS011;1228;51.022;6.764;2023-04-03T00:35:33;8.50;;;8.10;;
2434;SDS011;1228;51.022;6.764;2023-04-03T00:37:59;9.47;;;8.97;;
2434;SDS011;1228;51.022;6.764;2023-04-03T00:40:25;8.43;;;8.03;;
2434;SDS011;1228;51.022;6.764;2023-04-03T00:42:55;10.67;;;10.10;;
2434;SDS011;1228;51.022;6.764;2023-04-03T00:45:26;10.50;;;10.10;;
2434;SDS011;1228;51.022;6.764;2023-04-03T00:47:54;10.37;;;9.70;;
2434;SDS011;1228;51.022;6.764;2023-04-03T00:50:21;9.20;;;8.50;;
2434;SDS011;1228;51.022;6.764;2023-04-03T00:52:48;7.10;;;6.80;;
2434;SDS011;1228;51.022;6.764;2023-04-03T00:55:14;8.27;;;7.83;;
2434;SDS011;1228;51.022;6.764;2023-04-03T00:57:40;7.93;;;7.43;;
2434;SDS011;1228;51.022;6.764;2023-04-03T01:00:10;8.00;;;7.50;;
2434;SDS011;1228;51.022;6.764;2023-04-03T01:02:38;9.33;;;8.60;;
2434;SDS011;1228;51.022;6.764;2023-04-03T01:05:06;7.40;;;7.10;;
2434;SDS011;1228;51.022;6.764;2023-04-03T01:07:32;8.90;;;8.40;;
2434;SDS011;1228;51.022;6.764;2023-04-03T01:10:00;14.53;;;7.80;;
2434;SDS011;1228;51.022;6.764;2023-04-03T01:12:29;8.20;;;7.80;;
2434;SDS011;1228;51.022;6.764;2023-04-03T01:15:10;7.80;;;7.43;;
2434;SDS011;1228;51.022;6.764;2023-04-03T01:22:59;8.37;;;7.93;;
2434;SDS011;1228;51.022;6.764;2023-04-03T01:25:42;7.80;;;7.43;;
2434;SDS011;1228;51.022;6.764;2023-04-03T01:28:12;8.80;;;8.20;;
2434;SDS011;1228;51.022;6.764;2023-04-03T01:30:43;8.07;;;7.67;;
2434;SDS011;1228;51.022;6.764;2023-04-03T01:33:13;8.00;;;7.60;;
2434;SDS011;1228;51.022;6.764;2023-04-03T01:35:39;8.00;;;7.60;;
2434;SDS011;1228;51.022;6.764;2023-04-03T01:38:05;8.30;;;7.80;;
2434;SDS011;1228;51.022;6.764;2023-04-03T01:40:31;9.50;;;9.00;;
2434;SDS011;1228;51.022;6.764;2023-04-03T01:42:56;8.77;;;8.20;;
2434;SDS011;1228;51.022;6.764;2023-04-03T01:45:22;9.17;;;8.23;;
2434;SDS011;1228;51.022;6.764;2023-04-03T01:47:48;8.50;;;7.80;;
2434;SDS011;1228;51.022;6.764;2023-04-03T01:50:13;7.53;;;7.07;;
2434;SDS011;1228;51.022;6.764;2023-04-03T01:52:39;8.93;;;8.40;;
2434;SDS011;1228;51.022;6.764;2023-04-03T01:55:05;8.80;;;8.30;;
2434;SDS011;1228;51.022;6.764;2023-04-03T01:57:31;8.27;;;7.77;;
2434;SDS011;1228;51.022;6.764;2023-04-03T01:59:56;8.10;;;7.60;;
2434;SDS011;1228;51.022;6.764;2023-04-03T02:02:22;8.80;;;8.10;;
2434;SDS011;1228;51.022;6.764;2023-04-03T02:04:47;9.00;;;8.50;;
2434;SDS011;1228;51.022;6.764;2023-04-03T02:07:13;9.00;;;8.17;;
2434;SDS011;1228;51.022;6.764;2023-04-03T02:09:38;8.43;;;8.00;;
2434;SDS011;1228;51.022;6.764;2023-04-03T02:12:04;8.73;;;8.23;;
2434;SDS011;1228;51.022;6.764;2023-04-03T02:14:30;8.43;;;7.90;;
2434;SDS011;1228;51.022;6.764;2023-04-03T02:16:55;9.07;;;8.47;;
2434;SDS011;1228;51.022;6.764;2023-04-03T02:19:21;9.30;;;8.53;;
2434;SDS011;1228;51.022;6.764;2023-04-03T02:21:47;8.63;;;7.93;;
2434;SDS011;1228;51.022;6.764;2023-04-03T02:24:12;9.07;;;8.57;;
2434;SDS011;1228;51.022;6.764;2023-04-03T02:26:38;8.20;;;7.70;;
2434;SDS011;1228;51.022;6.764;2023-04-03T02:29:03;9.90;;;9.20;;
2434;SDS011;1228;51.022;6.764;2023-04-03T02:31:29;9.10;;;8.60;;
2434;SDS011;1228;51.022;6.764;2023-04-03T02:33:54;8.50;;;7.97;;
2434;SDS011;1228;51.022;6.764;2023-04-03T02:36:20;8.30;;;7.90;;
2434;SDS011;1228;51.022;6.764;2023-04-03T02:38:46;11.60;;;8.70;;
2434;SDS011;1228;51.022;6.764;2023-04-03T02:41:11;8.70;;;8.20;;
2434;SDS011;1228;51.022;6.764;2023-04-03T02:43:37;15.47;;;8.20;;
2434;SDS011;1228;51.022;6.764;2023-04-03T02:46:03;9.37;;;8.60;;
2434;SDS011;1228;51.022;6.764;2023-04-03T02:48:30;7.37;;;7.07;;
2434;SDS011;1228;51.022;6.764;2023-04-03T02:50:56;9.13;;;8.53;;
2434;SDS011;1228;51.022;6.764;2023-04-03T02:53:21;9.00;;;8.40;;
2434;SDS011;1228;51.022;6.764;2023-04-03T02:55:47;9.37;;;8.87;;
2434;SDS011;1228;51.022;6.764;2023-04-03T02:58:13;11.43;;;10.40;;
2434;SDS011;1228;51.022;6.764;2023-04-03T03:00:39;8.90;;;8.40;;
2434;SDS011;1228;51.022;6.764;2023-04-03T03:03:05;9.97;;;9.27;;
2434;SDS011;1228;51.022;6.764;2023-04-03T03:05:31;9.20;;;8.70;;
2434;SDS011;1228;51.022;6.764;2023-04-03T03:07:57;8.57;;;8.03;;
2434;SDS011;1228;51.022;6.764;2023-04-03T03:10:22;8.90;;;8.40;;
2434;SDS011;1228;51.022;6.764;2023-04-03T03:12:48;8.80;;;8.30;;
2434;SDS011;1228;51.022;6.764;2023-04-03T03:15:14;8.30;;;7.70;;
2434;SDS011;1228;51.022;6.764;2023-04-03T03:17:42;8.53;;;8.00;;
2434;SDS011;1228;51.022;6.764;2023-04-03T03:20:08;9.17;;;8.67;;
2434;SDS011;1228;51.022;6.764;2023-04-03T03:22:34;8.63;;;8.03;;
2434;SDS011;1228;51.022;6.764;2023-04-03T03:25:00;8.67;;;8.17;;
2434;SDS011;1228;51.022;6.764;2023-04-03T03:27:27;9.43;;;8.77;;
2434;SDS011;1228;51.022;6.764;2023-04-03T03:29:52;8.97;;;8.27;;
2434;SDS011;1228;51.022;6.764;2023-04-03T03:32:18;10.70;;;8.57;;
2434;SDS011;1228;51.022;6.764;2023-04-03T03:34:44;8.43;;;7.97;;
2434;SDS011;1228;51.022;6.764;2023-04-03T03:37:10;8.93;;;8.37;;
2434;SDS011;1228;51.022;6.764;2023-04-03T03:39:35;10.67;;;10.07;;
2434;SDS011;1228;51.022;6.764;2023-04-03T03:42:01;9.53;;;9.03;;
2434;SDS011;1228;51.022;6.764;2023-04-03T03:44:26;9.60;;;9.00;;
2434;SDS011;1228;51.022;6.764;2023-04-03T03:46:54;9.20;;;8.60;;
2434;SDS011;1228;51.022;6.764;2023-04-03T03:49:20;8.47;;;7.97;;
2434;SDS011;1228;51.022;6.764;2023-04-03T03:51:45;8.90;;;8.40;;
2434;SDS011;1228;51.022;6.764;2023-04-03T03:54:12;9.40;;;8.63;;
2434;SDS011;1228;51.022;6.764;2023-04-03T03:56:38;7.63;;;7.13;;
2434;SDS011;1228;51.022;6.764;2023-04-03T03:59:04;9.43;;;8.70;;
2434;SDS011;1228;51.022;6.764;2023-04-03T04:01:30;8.30;;;7.83;;
2434;SDS011;1228;51.022;6.764;2023-04-03T04:03:55;9.53;;;9.03;;
2434;SDS011;1228;51.022;6.764;2023-04-03T04:06:21;8.20;;;7.70;;
2434;SDS011;1228;51.022;6.764;2023-04-03T04:08:46;8.50;;;8.07;;
2434;SDS011;1228;51.022;6.764;2023-04-03T04:11:12;7.33;;;6.93;;
2434;SDS011;1228;51.022;6.764;2023-04-03T04:13:38;8.37;;;7.87;;
2434;SDS011;1228;51.022;6.764;2023-04-03T04:16:03;8.20;;;7.77;;
2434;SDS011;1228;51.022;6.764;2023-04-03T04:18:30;8.73;;;8.33;;
2434;SDS011;1228;51.022;6.764;2023-04-03T04:20:55;7.87;;;7.57;;
2434;SDS011;1228;51.022;6.764;2023-04-03T04:23:21;8.23;;;7.77;;
2434;SDS011;1228;51.022;6.764;2023-04-03T04:25:47;9.03;;;8.23;;
2434;SDS011;1228;51.022;6.764;2023-04-03T04:28:13;9.10;;;8.50;;
2434;SDS011;1228;51.022;6.764;2023-04-03T04:30:39;7.47;;;7.07;;
2434;SDS011;1228;51.022;6.764;2023-04-03T04:33:05;8.00;;;7.50;;
2434;SDS011;1228;51.022;6.764;2023-04-03T04:35:31;7.63;;;7.33;;
2434;SDS011;1228;51.022;6.764;2023-04-03T04:37:57;9.13;;;8.43;;
2434;SDS011;1228;51.022;6.764;2023-04-03T04:40:23;8.60;;;8.07;;
2434;SDS011;1228;51.022;6.764;2023-04-03T04:42:48;7.60;;;7.27;;
2434;SDS011;1228;51.022;6.764;2023-04-03T04:45:14;7.57;;;7.27;;
2434;SDS011;1228;51.022;6.764;2023-04-03T04:47:40;7.57;;;7.13;;
2434;SDS011;1228;51.022;6.764;2023-04-03T04:50:06;8.27;;;7.87;;
2434;SDS011;1228;51.022;6.764;2023-04-03T04:52:32;7.90;;;7.50;;
2434;SDS011;1228;51.022;6.764;2023-04-03T04:54:57;8.37;;;7.97;;
2434;SDS011;1228;51.022;6.764;2023-04-03T04:57:23;8.17;;;7.70;;
2434;SDS011;1228;51.022;6.764;2023-04-03T04:59:48;9.33;;;8.83;;
2434;SDS011;1228;51.022;6.764;2023-04-03T05:02:14;9.13;;;8.43;;
2434;SDS011;1228;51.022;6.764;2023-04-03T05:04:40;7.40;;;7.03;;
2434;SDS011;1228;51.022;6.764;2023-04-03T05:07:05;14.63;;;8.20;;
2434;SDS011;1228;51.022;6.764;2023-04-03T05:09:31;12.77;;;8.20;;
2434;SDS011;1228;51.022;6.764;2023-04-03T05:11:57;8.80;;;8.30;;
2434;SDS011;1228;51.022;6.764;2023-04-03T05:14:22;8.93;;;8.43;;
2434;SDS011;1228;51.022;6.764;2023-04-03T05:16:48;8.30;;;7.90;;
2434;SDS011;1228;51.022;6.764;2023-04-03T05:19:17;7.93;;;7.53;;
2434;SDS011;1228;51.022;6.764;2023-04-03T05:21:43;8.33;;;7.77;;
2434;SDS011;1228;51.022;6.764;2023-04-03T05:24:09;8.00;;;7.50;;
2434;SDS011;1228;51.022;6.764;2023-04-03T05:26:35;8.07;;;7.70;;
2434;SDS011;1228;51.022;6.764;2023-04-03T05:29:00;7.53;;;7.17;;
2434;SDS011;1228;51.022;6.764;2023-04-03T05:31:26;8.40;;;7.97;;
2434;SDS011;1228;51.022;6.764;2023-04-03T05:33:54;7.60;;;7.20;;
2434;SDS011;1228;51.022;6.764;2023-04-03T05:36:20;7.37;;;6.97;;
2434;SDS011;1228;51.022;6.764;2023-04-03T05:38:46;7.83;;;7.43;;
2434;SDS011;1228;51.022;6.764;2023-04-03T05:41:12;7.73;;;7.27;;
2434;SDS011;1228;51.022;6.764;2023-04-03T05:43:38;10.20;;;7.93;;
2434;SDS011;1228;51.022;6.764;2023-04-03T05:46:04;8.80;;;8.30;;
2434;SDS011;1228;51.022;6.764;2023-04-03T05:48:36;8.43;;;7.73;;
2434;SDS011;1228;51.022;6.764;2023-04-03T05:51:02;7.57;;;7.13;;
2434;SDS011;1228;51.022;6.764;2023-04-03T05:53:28;8.10;;;7.70;;
2434;SDS011;1228;51.022;6.764;2023-04-03T05:55:56;7.50;;;7.13;;
2434;SDS011;1228;51.022;6.764;2023-04-03T05:58:22;7.40;;;7.10;;
2434;SDS011;1228;51.022;6.764;2023-04-03T06:00:48;8.00;;;7.60;;
2434;SDS011;1228;51.022;6.764;2023-04-03T06:03:14;10.90;;;7.07;;
2434;SDS011;1228;51.022;6.764;2023-04-03T06:05:40;7.70;;;7.27;;
2434;SDS011;1228;51.022;6.764;2023-04-03T06:08:06;10.37;;;9.67;;
2434;SDS011;1228;51.022;6.764;2023-04-03T06:10:33;9.03;;;8.63;;
2434;SDS011;1228;51.022;6.764;2023-04-03T06:13:00;9.57;;;9.00;;
2434;SDS011;1228;51.022;6.764;2023-04-03T06:15:26;9.77;;;9.27;;
2434;SDS011;1228;51.022;6.764;2023-04-03T06:17:52;10.63;;;9.80;;
2434;SDS011;1228;51.022;6.764;2023-04-03T06:20:17;8.77;;;8.37;;
2434;SDS011;1228;51.022;6.764;2023-04-03T06:22:43;8.83;;;8.33;;
2434;SDS011;1228;51.022;6.764;2023-04-03T06:25:09;9.10;;;8.50;;
2434;SDS011;1228;51.022;6.764;2023-04-03T06:27:35;11.47;;;7.93;;
2434;SDS011;1228;51.022;6.764;2023-04-03T06:30:00;7.80;;;7.20;;
2434;SDS011;1228;51.022;6.764;2023-04-03T06:32:26;8.97;;;8.10;;
2434;SDS011;1228;51.022;6.764;2023-04-03T06:34:51;9.30;;;8.70;;
2434;SDS011;1228;51.022;6.764;2023-04-03T06:37:19;9.40;;;8.63;;
2434;SDS011;1228;51.022;6.764;2023-04-03T06:39:46;7.43;;;7.00;;
2434;SDS011;1228;51.022;6.764;2023-04-03T06:42:12;9.90;;;9.40;;
2434;SDS011;1228;51.022;6.764;2023-04-03T06:44:38;6.83;;;6.37;;
2434;SDS011;1228;51.022;6.764;2023-04-03T06:47:04;6.47;;;6.07;;
2434;SDS011;1228;51.022;6.764;2023-04-03T06:49:30;7.67;;;7.17;;
2434;SDS011;1228;51.022;6.764;2023-04-03T06:51:56;6.77;;;6.40;;
2434;SDS011;1228;51.022;6.764;2023-04-03T06:54:21;6.50;;;6.10;;
2434;SDS011;1228;51.022;6.764;2023-04-03T06:56:47;7.00;;;6.50;;
2434;SDS011;1228;51.022;6.764;2023-04-03T06:59:13;6.83;;;5.97;;
2434;SDS011;1228;51.022;6.764;2023-04-03T07:01:39;7.33;;;6.43;;
2434;SDS011;1228;51.022;6.764;2023-04-03T07:04:05;6.17;;;5.80;;
2434;SDS011;1228;51.022;6.764;2023-04-03T07:06:32;6.67;;;6.37;;
2434;SDS011;1228;51.022;6.764;2023-04-03T07:08:59;6.50;;;6.20;;
2434;SDS011;1228;51.022;6.764;2023-04-03T07:11:25;6.03;;;5.73;;
2434;SDS011;1228;51.022;6.764;2023-04-03T07:13:51;5.80;;;5.50;;
2434;SDS011;1228;51.022;6.764;2023-04-03T07:16:17;6.20;;;5.60;;
2434;SDS011;1228;51.022;6.764;2023-04-03T07:18:43;6.57;;;6.10;;
2434;SDS011;1228;51.022;6.764;2023-04-03T07:21:10;5.73;;;5.43;;
2434;SDS011;1228;51.022;6.764;2023-04-03T07:23:36;5.23;;;4.93;;
2434;SDS011;1228;51.022;6.764;2023-04-03T07:26:02;5.60;;;5.30;;
2434;SDS011;1228;51.022;6.764;2023-04-03T07:28:28;6.33;;;5.47;;
2434;SDS011;1228;51.022;6.764;2023-04-03T07:30:59;5.37;;;4.97;;
2434;SDS011;1228;51.022;6.764;2023-04-03T07:33:26;4.93;;;4.73;;
2434;SDS011;1228;51.022;6.764;2023-04-03T07:35:52;5.33;;;5.03;;
2434;SDS011;1228;51.022;6.764;2023-04-03T07:38:19;5.27;;;4.87;;
2434;SDS011;1228;51.022;6.764;2023-04-03T07:40:45;5.53;;;5.13;;
2434;SDS011;1228;51.022;6.764;2023-04-03T07:43:12;5.53;;;5.23;;
2434;SDS011;1228;51.022;6.764;2023-04-03T07:45:38;5.43;;;5.13;;
2434;SDS011;1228;51.022;6.764;2023-04-03T07:48:04;5.03;;;4.83;;
2434;SDS011;1228;51.022;6.764;2023-04-03T07:50:29;4.97;;;4.70;;
2434;SDS011;1228;51.022;6.764;2023-04-03T07:52:57;4.90;;;4.70;;
2434;SDS011;1228;51.022;6.764;2023-04-03T07:55:23;4.97;;;4.53;;
2434;SDS011;1228;51.022;6.764;2023-04-03T07:57:49;4.90;;;4.70;;
2434;SDS011;1228;51.022;6.764;2023-04-03T08:00:14;5.43;;;4.93;;
2434;SDS011;1228;51.022;6.764;2023-04-03T08:02:42;5.00;;;4.70;;
2434;SDS011;1228;51.022;6.764;2023-04-03T08:05:09;5.87;;;5.37;;
2434;SDS011;1228;51.022;6.764;2023-04-03T08:07:36;4.70;;;4.40;;
2434;SDS011;1228;51.022;6.764;2023-04-03T08:10:02;4.87;;;4.57;;
2434;SDS011;1228;51.022;6.764;2023-04-03T08:12:29;4.63;;;4.43;;
2434;SDS011;1228;51.022;6.764;2023-04-03T08:14:54;4.90;;;4.50;;
2434;SDS011;1228;51.022;6.764;2023-04-03T08:17:20;4.57;;;4.37;;
2434;SDS011;1228;51.022;6.764;2023-04-03T08:19:46;4.30;;;4.10;;
2434;SDS011;1228;51.022;6.764;2023-04-03T08:22:12;4.53;;;4.23;;
2434;SDS011;1228;51.022;6.764;2023-04-03T08:24:37;4.60;;;4.40;;
2434;SDS011;1228;51.022;6.764;2023-04-03T08:27:03;4.27;;;4.07;;
2434;SDS011;1228;51.022;6.764;2023-04-03T08:29:29;5.00;;;4.50;;
2434;SDS011;1228;51.022;6.764;2023-04-03T08:31:54;4.13;;;3.93;;
2434;SDS011;1228;51.022;6.764;2023-04-03T08:34:20;4.23;;;4.03;;
2434;SDS011;1228;51.022;6.764;2023-04-03T08:36:46;4.47;;;4.10;;
2434;SDS011;1228;51.022;6.764;2023-04-03T08:39:12;4.20;;;3.90;;
2434;SDS011;1228;51.022;6.764;2023-04-03T08:41:42;5.13;;;3.90;;
2434;SDS011;1228;51.022;6.764;2023-04-03T08:47:04;4.30;;;4.00;;
2434;SDS011;1228;51.022;6.764;2023-04-03T08:49:57;4.53;;;3.90;;
2434;SDS011;1228;51.022;6.764;2023-04-03T08:55:33;4.30;;;4.00;;
2434;SDS011;1228;51.022;6.764;2023-04-03T08:58:47;4.20;;;3.90;;
2434;SDS011;1228;51.022;6.764;2023-04-03T09:01:19;3.70;;;3.60;;
2434;SDS011;1228;51.022;6.764;2023-04-03T09:03:46;4.23;;;4.03;;
2434;SDS011;1228;51.022;6.764;2023-04-03T09:06:17;3.83;;;3.60;;
2434;SDS011;1228;51.022;6.764;2023-04-03T09:08:51;4.20;;;3.80;;
2434;SDS011;1228;51.022;6.764;2023-04-03T09:11:25;4.13;;;3.93;;
2434;SDS011;1228;51.022;6.764;2023-04-03T09:13:56;3.87;;;3.60;;
2434;SDS011;1228;51.022;6.764;2023-04-03T09:21:56;4.23;;;3.87;;
2434;SDS011;1228;51.022;6.764;2023-04-03T09:24:23;3.97;;;3.70;;
2434;SDS011;1228;51.022;6.764;2023-04-03T09:27:05;3.67;;;3.37;;
2434;SDS011;1228;51.022;6.764;2023-04-03T09:29:35;3.83;;;3.53;;
2434;SDS011;1228;51.022;6.764;2023-04-03T09:32:27;3.63;;;3.43;;
2434;SDS011;1228;51.022;6.764;2023-04-03T09:35:00;3.63;;;3.47;;
2434;SDS011;1228;51.022;6.764;2023-04-03T09:37:44;4.00;;;3.70;;
2434;SDS011;1228;51.022;6.764;2023-04-03T09:43:29;3.60;;;3.50;;
2434;SDS011;1228;51.022;6.764;2023-04-03T09:45:56;3.70;;;3.50;;
2434;SDS011;1228;51.022;6.764;2023-04-03T09:48:49;3.77;;;3.50;;
2434;SDS011;1228;51.022;6.764;2023-04-03T09:51:16;3.90;;;3.80;;
2434;SDS011;1228;51.022;6.764;2023-04-03T09:53:43;3.83;;;3.63;;
2434;SDS011;1228;51.022;6.764;2023-04-03T09:58:45;4.13;;;3.93;;
2434;SDS011;1228;51.022;6.764;2023-04-03T10:03:46;3.70;;;3.60;;
2434;SDS011;1228;51.022;6.764;2023-04-03T10:06:41;3.90;;;3.60;;
2434;SDS011;1228;51.022;6.764;2023-04-03T10:09:21;4.47;;;4.17;;
2434;SDS011;1228;51.022;6.764;2023-04-03T10:11:58;5.13;;;3.87;;
2434;SDS011;1228;51.022;6.764;2023-04-03T10:14:35;3.80;;;3.60;;
2434;SDS011;1228;51.022;6.764;2023-04-03T10:17:11;3.80;;;3.60;;
2434;SDS011;1228;51.022;6.764;2023-04-03T10:22:32;4.77;;;3.60;;
2434;SDS011;1228;51.022;6.764;2023-04-03T10:28:20;3.70;;;3.50;;
2434;SDS011;1228;51.022;6.764;2023-04-03T10:36:48;3.90;;;3.70;;
2434;SDS011;1228;51.022;6.764;2023-04-03T11:01:19;3.90;;;3.70;;
2434;SDS011;1228;51.022;6.764;2023-04-03T11:03:55;3.87;;;3.67;;
2434;SDS011;1228;51.022;6.764;2023-04-03T11:06:24;4.33;;;4.00;;
2434;SDS011;1228;51.022;6.764;2023-04-03T11:08:57;3.93;;;3.73;;
2434;SDS011;1228;51.022;6.764;2023-04-03T11:11:35;4.03;;;3.77;;
2434;SDS011;1228;51.022;6.764;2023-04-03T11:14:10;3.83;;;3.63;;
2434;SDS011;1228;51.022;6.764;2023-04-03T11:16:42;5.03;;;3.80;;
2434;SDS011;1228;51.022;6.764;2023-04-03T11:19:18;4.03;;;3.77;;
2434;SDS011;1228;51.022;6.764;2023-04-03T11:21:56;3.80;;;3.60;;
2434;SDS011;1228;51.022;6.764;2023-04-03T11:24:27;3.90;;;3.67;;
2434;SDS011;1228;51.022;6.764;2023-04-03T11:26:57;4.40;;;4.00;;
2434;SDS011;1228;51.022;6.764;2023-04-03T11:29:26;4.10;;;3.80;;
2434;SDS011;1228;51.022;6.764;2023-04-03T11:37:13;5.27;;;4.00;;
2434;SDS011;1228;51.022;6.764;2023-04-03T11:39:51;3.70;;;3.50;;
2434;SDS011;1228;51.022;6.764;2023-04-03T11:45:15;4.03;;;3.83;;
2434;SDS011;1228;51.022;6.764;2023-04-03T11:53:44;3.60;;;3.50;;
2434;SDS011;1228;51.022;6.764;2023-04-03T11:58:33;3.93;;;3.67;;
2434;SDS011;1228;51.022;6.764;2023-04-03T12:03:58;3.63;;;3.47;;
2434;SDS011;1228;51.022;6.764;2023-04-03T12:09:00;3.80;;;3.60;;
2434;SDS011;1228;51.022;6.764;2023-04-03T12:11:31;3.40;;;3.30;;
2434;SDS011;1228;51.022;6.764;2023-04-03T12:16:25;3.73;;;3.53;;
2434;SDS011;1228;51.022;6.764;2023-04-03T12:24:03;3.57;;;3.37;;
2434;SDS011;1228;51.022;6.764;2023-04-03T12:29:14;3.90;;;3.60;;
2434;SDS011;1228;51.022;6.764;2023-04-03T12:32:11;3.70;;;3.40;;
2434;SDS011;1228;51.022;6.764;2023-04-03T12:43:13;3.70;;;3.37;;
2434;SDS011;1228;51.022;6.764;2023-04-03T12:45:47;3.50;;;3.40;;
2434;SDS011;1228;51.022;6.764;2023-04-03T12:48:17;4.03;;;3.63;;
2434;SDS011;1228;51.022;6.764;2023-04-03T12:50:49;3.50;;;3.40;;
2434;SDS011;1228;51.022;6.764;2023-04-03T12:53:19;4.00;;;3.70;;
2434;SDS011;1228;51.022;6.764;2023-04-03T12:58:46;3.60;;;3.50;;
2434;SDS011;1228;51.022;6.764;2023-04-03T13:01:13;3.90;;;3.70;;
2434;SDS011;1228;51.022;6.764;2023-04-03T13:03:44;3.80;;;3.60;;
2434;SDS011;1228;51.022;6.764;2023-04-03T13:06:17;3.40;;;3.20;;
2434;SDS011;1228;51.022;6.764;2023-04-03T13:08:48;3.70;;;3.50;;
2434;SDS011;1228;51.022;6.764;2023-04-03T13:11:18;3.80;;;3.40;;
2434;SDS011;1228;51.022;6.764;2023-04-03T13:13:56;3.43;;;3.27;;
2434;SDS011;1228;51.022;6.764;2023-04-03T13:16:23;4.10;;;3.80;;
2434;SDS011;1228;51.022;6.764;2023-04-03T13:18:50;5.63;;;3.70;;
2434;SDS011;1228;51.022;6.764;2023-04-03T13:21:21;3.80;;;3.70;;
2434;SDS011;1228;51.022;6.764;2023-04-03T13:23:57;3.70;;;3.50;;
2434;SDS011;1228;51.022;6.764;2023-04-03T13:26:26;3.80;;;3.60;;
2434;SDS011;1228;51.022;6.764;2023-04-03T13:28:55;3.70;;;3.50;;
2434;SDS011;1228;51.022;6.764;2023-04-03T13:31:26;3.50;;;3.40;;
2434;SDS011;1228;51.022;6.764;2023-04-03T13:34:12;3.80;;;3.60;;
2434;SDS011;1228;51.022;6.764;2023-04-03T13:36:45;3.80;;;3.60;;
2434;SDS011;1228;51.022;6.764;2023-04-03T13:39:24;3.70;;;3.40;;
2434;SDS011;1228;51.022;6.764;2023-04-03T13:41:51;4.07;;;3.53;;
2434;SDS011;1228;51.022;6.764;2023-04-03T13:46:47;4.00;;;3.80;;
2434;SDS011;1228;51.022;6.764;2023-04-03T13:49:20;3.80;;;3.60;;
2434;SDS011;1228;51.022;6.764;2023-04-03T13:52:02;3.80;;;3.60;;
2434;SDS011;1228;51.022;6.764;2023-04-03T13:55:00;3.83;;;3.53;;
2434;SDS011;1228;51.022;6.764;2023-04-03T13:57:34;3.90;;;3.70;;
2434;SDS011;1228;51.022;6.764;2023-04-03T14:00:18;3.57;;;3.40;;
2434;SDS011;1228;51.022;6.764;2023-04-03T14:02:46;3.60;;;3.50;;
2434;SDS011;1228;51.022;6.764;2023-04-03T14:05:13;3.50;;;3.40;;
2434;SDS011;1228;51.022;6.764;2023-04-03T14:07:39;3.60;;;3.50;;
2434;SDS011;1228;51.022;6.764;2023-04-03T14:10:04;4.30;;;3.97;;
2434;SDS011;1228;51.022;6.764;2023-04-03T14:14:59;3.70;;;3.50;;
2434;SDS011;1228;51.022;6.764;2023-04-03T14:17:26;4.00;;;3.80;;
2434;SDS011;1228;51.022;6.764;2023-04-03T14:19:53;3.50;;;3.40;;
2434;SDS011;1228;51.022;6.764;2023-04-03T14:22:24;3.83;;;3.50;;
2434;SDS011;1228;51.022;6.764;2023-04-03T14:24:51;4.13;;;3.53;;
2434;SDS011;1228;51.022;6.764;2023-04-03T14:27:22;3.73;;;3.53;;
2434;SDS011;1228;51.022;6.764;2023-04-03T14:29:51;3.90;;;3.70;;
2434;SDS011;1228;51.022;6.764;2023-04-03T14:32:19;3.90;;;3.70;;
2434;SDS011;1228;51.022;6.764;2023-04-03T14:34:46;3.60;;;3.50;;
2434;SDS011;1228;51.022;6.764;2023-04-03T14:37:13;3.70;;;3.50;;
2434;SDS011;1228;51.022;6.764;2023-04-03T14:39:41;4.10;;;3.80;;
2434;SDS011;1228;51.022;6.764;2023-04-03T14:42:15;4.20;;;4.00;;
2434;SDS011;1228;51.022;6.764;2023-04-03T14:44:43;3.83;;;3.70;;
2434;SDS011;1228;51.022;6.764;2023-04-03T14:47:13;4.23;;;3.73;;
2434;SDS011;1228;51.022;6.764;2023-04-03T14:49:50;3.90;;;3.60;;
2434;SDS011;1228;51.022;6.764;2023-04-03T14:52:18;4.07;;;3.87;;
2434;SDS011;1228;51.022;6.764;2023-04-03T14:54:46;4.27;;;4.07;;
2434;SDS011;1228;51.022;6.764;2023-04-03T14:57:13;4.17;;;3.97;;
2434;SDS011;1228;51.022;6.764;2023-04-03T14:59:40;3.93;;;3.73;;
2434;SDS011;1228;51.022;6.764;2023-04-03T15:02:25;4.27;;;3.90;;
2434;SDS011;1228;51.022;6.764;2023-04-03T15:04:56;4.23;;;4.00;;
2434;SDS011;1228;51.022;6.764;2023-04-03T15:07:23;4.03;;;3.83;;
2434;SDS011;1228;51.022;6.764;2023-04-03T15:09:51;3.87;;;3.70;;
2434;SDS011;1228;51.022;6.764;2023-04-03T15:12:17;6.40;;;3.90;;
2434;SDS011;1228;51.022;6.764;2023-04-03T15:14:42;7.83;;;3.90;;
2434;SDS011;1228;51.022;6.764;2023-04-03T15:17:10;4.40;;;4.00;;
2434;SDS011;1228;51.022;6.764;2023-04-03T15:19:41;4.37;;;4.17;;
2434;SDS011;1228;51.022;6.764;2023-04-03T15:22:08;3.97;;;3.77;;
2434;SDS011;1228;51.022;6.764;2023-04-03T15:24:40;4.07;;;3.87;;
2434;SDS011;1228;51.022;6.764;2023-04-03T15:27:06;4.10;;;3.90;;
2434;SDS011;1228;51.022;6.764;2023-04-03T15:29:32;4.10;;;3.90;;
2434;SDS011;1228;51.022;6.764;2023-04-03T15:31:57;4.27;;;4.03;;
2434;SDS011;1228;51.022;6.764;2023-04-03T15:34:23;4.30;;;4.10;;
2434;SDS011;1228;51.022;6.764;2023-04-03T15:36:49;4.10;;;3.90;;
2434;SDS011;1228;51.022;6.764;2023-04-03T15:39:17;4.20;;;4.00;;
2434;SDS011;1228;51.022;6.764;2023-04-03T15:41:43;4.20;;;4.00;;
2434;SDS011;1228;51.022;6.764;2023-04-03T15:44:10;4.20;;;4.00;;
2434;SDS011;1228;51.022;6.764;2023-04-03T15:46:37;4.40;;;4.20;;
2434;SDS011;1228;51.022;6.764;2023-04-03T15:49:03;3.90;;;3.70;;
2434;SDS011;1228;51.022;6.764;2023-04-03T15:51:29;4.30;;;4.10;;
2434;SDS011;1228;51.022;6.764;2023-04-03T15:53:55;4.43;;;4.23;;
2434;SDS011;1228;51.022;6.764;2023-04-03T15:56:21;4.20;;;4.00;;
2434;SDS011;1228;51.022;6.764;2023-04-03T15:58:46;4.37;;;4.07;;
2434;SDS011;1228;51.022;6.764;2023-04-03T16:01:12;4.30;;;4.00;;
2434;SDS011;1228;51.022;6.764;2023-04-03T16:03:39;4.20;;;4.00;;
2434;SDS011;1228;51.022;6.764;2023-04-03T16:06:10;4.20;;;3.90;;
2434;SDS011;1228;51.022;6.764;2023-04-03T16:08:36;4.60;;;4.23;;
2434;SDS011;1228;51.022;6.764;2023-04-03T16:11:02;4.20;;;3.90;;
2434;SDS011;1228;51.022;6.764;2023-04-03T16:13:28;4.43;;;4.03;;
2434;SDS011;1228;51.022;6.764;2023-04-03T16:15:54;4.30;;;4.00;;
2434;SDS011;1228;51.022;6.764;2023-04-03T16:18:20;4.43;;;4.13;;
2434;SDS011;1228;51.022;6.764;2023-04-03T16:20:46;4.20;;;4.00;;
2434;SDS011;1228;51.022;6.764;2023-04-03T16:23:11;4.10;;;3.90;;
2434;SDS011;1228;51.022;6.764;2023-04-03T16:25:37;4.13;;;3.83;;
2434;SDS011;1228;51.022;6.764;2023-04-03T16:28:03;4.30;;;4.00;;
2434;SDS011;1228;51.022;6.764;2023-04-03T16:30:29;4.23;;;4.03;;
2434;SDS011;1228;51.022;6.764;2023-04-03T16:32:54;4.10;;;3.90;;
2434;SDS011;1228;51.022;6.764;2023-04-03T16:35:21;4.30;;;4.10;;
2434;SDS011;1228;51.022;6.764;2023-04-03T16:37:47;4.13;;;3.93;;
2434;SDS011;1228;51.022;6.764;2023-04-03T16:40:13;4.17;;;3.97;;
2434;SDS011;1228;51.022;6.764;2023-04-03T16:42:39;4.27;;;4.07;;
2434;SDS011;1228;51.022;6.764;2023-04-03T16:45:05;4.07;;;3.87;;
2434;SDS011;1228;51.022;6.764;2023-04-03T16:47:31;4.40;;;4.20;;
2434;SDS011;1228;51.022;6.764;2023-04-03T16:49:57;4.50;;;4.30;;
2434;SDS011;1228;51.022;6.764;2023-04-03T16:52:23;4.40;;;4.10;;
2434;SDS011;1228;51.022;6.764;2023-04-03T16:54:48;4.10;;;3.90;;
2434;SDS011;1228;51.022;6.764;2023-04-03T16:57:14;4.60;;;4.30;;
2434;SDS011;1228;51.022;6.764;2023-04-03T16:59:40;4.37;;;4.17;;
2434;SDS011;1228;51.022;6.764;2023-04-03T17:02:06;4.70;;;4.40;;
2434;SDS011;1228;51.022;6.764;2023-04-03T17:04:31;4.80;;;4.50;;
2434;SDS011;1228;51.022;6.764;2023-04-03T17:06:57;4.57;;;4.37;;
2434;SDS011;1228;51.022;6.764;2023-04-03T17:09:24;4.83;;;4.43;;